Etusivu
METAR-TAF:

METAR-TAF

Lentoasemat :

Bardufoss, Norja

Leveyspiiri: 69-04N, Pituuspiiri: 018-32E, korkeus merenpinnasta: 7 m

Tämänhetkinen sää

Tämä raportti tehtiin 38 minuuttia sitten, kello 11.20 UTC
Tuuli 4 kn etelästä, vaihdellen kaakon ja lännen/lounaan välillä
Lämpötila 19°C
Kosteus 46%
Ilmanpaine 1000 hPa
Näkyvyys 10 km tai enemmän
Muutamia pilviä 4000 ft:n korkeudessa
Hajonneita pilviä 5000 ft:n korkeudessa

METAR: ENDU 181120Z 18004KT 130V240 9999 FEW040 BKN050 19/07 Q1000 NOSIG RMK WIND 1100FT 16011KT WIND 2200FT 18011KT

Aika: 13:58 (11:58 UTC)

Sääennuste

Ennuste voimassa 18. päivästä klo 06 UTC - 19. päivään klo 06 UTC
Tuuli 8 kn etelästä/lounaasta
Näkyvyys 10 km tai enemmän
Muutamia pilviä 2000 ft:n korkeudessa
Hajonneita pilviä 5000 ft:n korkeudessa
Ajoittain
19. päivästä klo 02 UTC - 19. päivään klo 06 UTC
sadetta

TAF: ENDU 1806/1906 21008KT 9999 FEW020 BKN050 TEMPO 1902/1906 RA

Säähavainnot ja -ennusteet yli 4000 lentoasemalta (METAR- ja TAF-raportit).

Käytössä olevat sääasemat on merkitty karttaan keltaisilla ja punaisilla pisteillä.

Aseta hiiri pisteen päälle nähdäksesi sääaseman nimen.

Klikkaa sitten nähdäksesi säähavainnot ja -ennusteet.

Kartan vaihtaminen: klikkaa mustalla rastilla varustettuja vihreitä pisteitä, niin voit zoomata sisään; viivalla varustettua vihreää pistettä, niin voit zoomata ulos tai vihreitä nuolia, niin pääset viereisille kartoille.


METAR-TAF: